In Rescue
 
Open Full Screen Window  High Contrast Mode
Wind Gusting 00 knots
06
September 18, 2020 11:33 PM EDT
Weather Information
Wind Direction
  280 °
Wind Speed
  06 kt (7 mph)
Wind Gust
  00 kt (0 mph)
Altimeter
30.40 in
Visibility
10 SM
Temperature
01° C
34° F
Dewpoint
01° C
34° F
Humidity
100%
1hr Rain Fall
00.00 in.
24hr Rain Fall
00.00 in.
Sky Condition
Clear
VFR

METAR KY31 190333Z AUTO 28006KT 10SM CLR 01/01 A3040 RMK AO2 T00110007

FAA Disclaimer: The data displayed is for advisory purposes only and is not to be used for flight planning or operations.